createdAt,value
2023-02-08T00:00:33.358Z,13.1
2023-02-08T00:01:35.580Z,13
2023-02-08T00:02:38.250Z,13
2023-02-08T00:03:41.004Z,13.1
2023-02-08T00:04:43.368Z,13
2023-02-08T00:05:45.644Z,13
2023-02-08T00:06:48.184Z,13.1
2023-02-08T00:07:50.425Z,13
2023-02-08T00:08:53.017Z,13.1
2023-02-08T00:09:55.710Z,13.1
2023-02-08T00:10:58.197Z,13
2023-02-08T00:12:00.695Z,13
2023-02-08T00:13:03.201Z,13
2023-02-08T00:14:05.526Z,13.1
2023-02-08T00:15:07.742Z,13
2023-02-08T00:16:10.397Z,13.1
2023-02-08T00:17:13.062Z,13.1
2023-02-08T00:18:15.555Z,13.1
2023-02-08T00:19:17.771Z,13.1
2023-02-08T00:20:20.004Z,13.1
2023-02-08T00:21:22.499Z,13.1
2023-02-08T00:22:24.486Z,13.1
2023-02-08T00:23:26.704Z,13.1
2023-02-08T00:24:29.261Z,13.1
2023-02-08T00:25:31.780Z,13.2
2023-02-08T00:26:34.006Z,13.1
2023-02-08T00:27:36.225Z,13.1
2023-02-08T00:28:38.735Z,13.2
2023-02-08T00:29:41.007Z,13.2
2023-02-08T00:30:44.132Z,13.1
2023-02-08T00:31:47.042Z,13.1
2023-02-08T00:32:49.780Z,13.1
2023-02-08T00:33:52.277Z,13
2023-02-08T00:34:54.582Z,13.1
2023-02-08T00:35:57.087Z,13.1
2023-02-08T00:36:58.796Z,13.1
2023-02-08T00:38:00.795Z,13.1
2023-02-08T00:39:03.348Z,13.1
2023-02-08T00:40:06.014Z,13.1
2023-02-08T00:41:08.248Z,13.1
2023-02-08T00:42:10.466Z,13.1
2023-02-08T00:43:12.960Z,13.1
2023-02-08T00:44:15.447Z,13.1
2023-02-08T00:45:17.981Z,13.2
2023-02-08T00:46:20.632Z,13.1
2023-02-08T00:47:23.221Z,13.1
2023-02-08T00:48:25.471Z,13.2
2023-02-08T00:49:27.983Z,13.1
2023-02-08T00:50:30.487Z,13.3
2023-02-08T00:51:33.022Z,13.2
2023-02-08T00:52:35.504Z,13.1
2023-02-08T00:53:37.745Z,13.1
2023-02-08T00:54:39.992Z,13.1
2023-02-08T00:55:42.515Z,13.1
2023-02-08T00:56:45.012Z,13.2
2023-02-08T00:57:47.510Z,13.2
2023-02-08T00:58:50.027Z,13.2
2023-02-08T00:59:52.247Z,13.1
2023-02-08T01:00:54.656Z,13.1
2023-02-08T01:01:57.029Z,13.2
2023-02-08T01:02:59.202Z,13.2
2023-02-08T01:04:01.715Z,13.2
2023-02-08T01:05:04.239Z,13.2
2023-02-08T01:06:06.464Z,13.2
2023-02-08T01:07:08.695Z,13.2
2023-02-08T01:08:11.182Z,13.2
2023-02-08T01:09:13.708Z,13.2
2023-02-08T01:10:15.644Z,13.3
2023-02-08T01:11:18.193Z,13.2
2023-02-08T01:12:20.436Z,13.2
2023-02-08T01:13:22.655Z,13.2
2023-02-08T01:14:24.880Z,13.2
2023-02-08T01:15:27.150Z,13.3
2023-02-08T01:16:29.487Z,13.3
2023-02-08T01:17:32.287Z,13.2
2023-02-08T01:18:34.282Z,13.2
2023-02-08T01:19:36.790Z,13.3
2023-02-08T01:20:39.714Z,13.2
2023-02-08T01:21:43.217Z,13.1
2023-02-08T01:22:45.434Z,13.1
2023-02-08T01:23:47.949Z,13.2
2023-02-08T01:24:50.475Z,13.3
2023-02-08T01:25:52.987Z,13.2
2023-02-08T01:26:55.506Z,13.2
2023-02-08T01:27:57.898Z,13.2
2023-02-08T01:29:00.044Z,13.3
2023-02-08T01:30:02.548Z,13.2
2023-02-08T01:31:04.848Z,13.2
2023-02-08T01:32:07.750Z,13.2
2023-02-08T01:33:09.675Z,13.2
2023-02-08T01:34:11.898Z,13.2
2023-02-08T01:35:14.137Z,13.2
2023-02-08T01:36:16.646Z,13.2
2023-02-08T01:37:19.191Z,13.2
2023-02-08T01:38:21.309Z,13.2
2023-02-08T01:39:23.520Z,13.3
2023-02-08T01:40:26.036Z,13.3
2023-02-08T01:41:28.555Z,13.2
2023-02-08T01:42:31.212Z,13.3
2023-02-08T01:43:33.158Z,13.2
2023-02-08T01:44:35.099Z,13.2
2023-02-08T01:45:37.373Z,13.2
2023-02-08T01:46:39.990Z,13.2
2023-02-08T01:47:42.233Z,13.2
2023-02-08T01:48:44.717Z,13.2
2023-02-08T01:49:47.210Z,13.3
2023-02-08T01:50:49.438Z,13.3
2023-02-08T01:51:51.931Z,13.2
2023-02-08T01:52:54.154Z,13.2
2023-02-08T01:53:56.642Z,13.3
2023-02-08T01:54:58.878Z,13.3
2023-02-08T01:56:01.381Z,13.2
2023-02-08T01:57:03.939Z,13.2
2023-02-08T01:58:06.475Z,13.2
2023-02-08T01:59:08.983Z,13.3
2023-02-08T02:00:11.488Z,13.3
2023-02-08T02:01:13.823Z,13.3
2023-02-08T02:02:16.602Z,13.3
2023-02-08T02:03:19.140Z,13.3
2023-02-08T02:04:21.730Z,13.3
2023-02-08T02:05:24.135Z,13.3
2023-02-08T02:06:26.632Z,13.4
2023-02-08T02:07:28.884Z,13.3
2023-02-08T02:08:31.427Z,13.3
2023-02-08T02:09:33.661Z,13.2
2023-02-08T02:10:36.177Z,13.2
2023-02-08T02:11:38.434Z,13.3
2023-02-08T02:12:40.975Z,13.3
2023-02-08T02:13:42.970Z,13.2
2023-02-08T02:14:45.461Z,13.2
2023-02-08T02:15:47.956Z,13.2
2023-02-08T02:16:50.550Z,13.3
2023-02-08T02:17:53.098Z,13.2
2023-02-08T02:18:55.345Z,13.2
2023-02-08T02:19:57.844Z,13.3
2023-02-08T02:21:00.075Z,13.3
2023-02-08T02:22:02.589Z,13.3
2023-02-08T02:23:04.820Z,13.3
2023-02-08T02:24:06.779Z,13.3
2023-02-08T02:25:09.508Z,13.4
2023-02-08T02:26:12.015Z,13.3
2023-02-08T02:27:14.253Z,13.3
2023-02-08T02:28:17.052Z,13.3
2023-02-08T02:29:19.959Z,13.2
2023-02-08T02:30:22.462Z,13.3
2023-02-08T02:31:25.142Z,13.3
2023-02-08T02:32:27.890Z,13.3
2023-02-08T02:33:30.105Z,13.2
2023-02-08T02:34:32.344Z,13.3
2023-02-08T02:35:34.861Z,13.3
2023-02-08T02:36:37.358Z,13.3
2023-02-08T02:37:39.581Z,13.3
2023-02-08T02:38:41.893Z,13.2
2023-02-08T02:39:44.396Z,13.3
2023-02-08T02:40:46.602Z,13.3
2023-02-08T02:41:48.568Z,13.3
2023-02-08T02:42:50.816Z,13.3
2023-02-08T02:43:53.065Z,13.3
2023-02-08T02:44:55.625Z,13.2
2023-02-08T02:45:58.158Z,13.3
2023-02-08T02:47:00.854Z,13.3
2023-02-08T02:48:03.385Z,13.3
2023-02-08T02:49:05.667Z,13.2
2023-02-08T02:50:07.922Z,13.3
2023-02-08T02:51:10.450Z,13.3
2023-02-08T02:52:13.020Z,13.3
2023-02-08T02:53:15.519Z,13.3
2023-02-08T02:54:18.011Z,13.3
2023-02-08T02:55:20.261Z,13.3
2023-02-08T02:56:22.767Z,13.3
2023-02-08T02:57:25.265Z,13.3
2023-02-08T02:58:27.505Z,13.3
2023-02-08T02:59:30.040Z,13.3
2023-02-08T03:00:32.573Z,13.3
2023-02-08T03:01:35.082Z,13.3
2023-02-08T03:02:37.584Z,13.3
2023-02-08T03:03:40.110Z,13.3
2023-02-08T03:04:42.746Z,13.3
2023-02-08T03:05:45.267Z,13.3
2023-02-08T03:06:47.756Z,13.2
2023-02-08T03:07:50.242Z,13.2
2023-02-08T03:08:52.720Z,13.4
2023-02-08T03:09:54.913Z,13.2
2023-02-08T03:10:57.145Z,13.3
2023-02-08T03:11:59.668Z,13.3
2023-02-08T03:13:02.176Z,13.2
2023-02-08T03:14:04.443Z,13.3
2023-02-08T03:15:07.026Z,13.3
2023-02-08T03:16:09.587Z,13.2
2023-02-08T03:17:11.976Z,13.3
2023-02-08T03:18:13.906Z,13.3
2023-02-08T03:19:16.407Z,13.3
2023-02-08T03:20:18.958Z,13.4
2023-02-08T03:21:21.475Z,13.3
2023-02-08T03:22:23.997Z,13.3
2023-02-08T03:23:26.247Z,13.3
2023-02-08T03:24:28.784Z,13.3
2023-02-08T03:25:30.991Z,13.3
2023-02-08T03:26:33.513Z,13.3
2023-02-08T03:27:35.731Z,13.3
2023-02-08T03:28:37.953Z,13.3
2023-02-08T03:29:40.209Z,13.2
2023-02-08T03:30:43.640Z,13.2
2023-02-08T03:31:47.342Z,13.4
2023-02-08T03:32:49.745Z,13.2
2023-02-08T03:33:52.227Z,13.3
2023-02-08T03:34:54.757Z,13.3
2023-02-08T03:35:57.324Z,13.3
2023-02-08T03:36:59.858Z,13.3
2023-02-08T03:38:01.890Z,13.3
2023-02-08T03:39:04.405Z,13.3
2023-02-08T03:40:06.694Z,13.3
2023-02-08T03:41:09.183Z,13.3
2023-02-08T03:42:11.426Z,13.3
2023-02-08T03:43:13.679Z,13.3
2023-02-08T03:44:16.179Z,13.3
2023-02-08T03:45:18.162Z,13.2
2023-02-08T03:46:20.856Z,13.2
2023-02-08T03:47:23.735Z,13.2
2023-02-08T03:48:26.221Z,13.4
2023-02-08T03:49:28.714Z,13.3
2023-02-08T03:50:31.244Z,13.3
2023-02-08T03:51:33.750Z,13.4
2023-02-08T03:52:36.322Z,13.3
2023-02-08T03:53:38.681Z,13.3
2023-02-08T03:54:41.181Z,13.2
2023-02-08T03:55:43.681Z,13.3
2023-02-08T03:56:45.906Z,13.2
2023-02-08T03:57:48.196Z,13.3
2023-02-08T03:58:50.430Z,13.3
2023-02-08T03:59:53.072Z,13.3
2023-02-08T04:00:55.458Z,13.2
2023-02-08T04:01:58.052Z,13.3
2023-02-08T04:03:00.636Z,13.3
2023-02-08T04:04:03.130Z,13.3
2023-02-08T04:05:05.382Z,13.2
2023-02-08T04:06:07.316Z,13.3
2023-02-08T04:07:09.819Z,13.2
2023-02-08T04:08:12.353Z,13.3
2023-02-08T04:09:14.858Z,13.2
2023-02-08T04:10:17.121Z,13.2
2023-02-08T04:11:19.363Z,13.2
2023-02-08T04:12:21.613Z,13.2
2023-02-08T04:13:23.835Z,13.2
2023-02-08T04:14:26.369Z,13.3
2023-02-08T04:15:28.808Z,13.3
2023-02-08T04:16:31.306Z,13.2
2023-02-08T04:17:33.670Z,13.2
2023-02-08T04:18:35.936Z,13.2
2023-02-08T04:19:38.171Z,13.3
2023-02-08T04:20:41.205Z,13.2
2023-02-08T04:21:44.031Z,13.3
2023-02-08T04:22:46.239Z,13.2
2023-02-08T04:23:48.785Z,13.2
2023-02-08T04:24:51.039Z,13.2
2023-02-08T04:25:53.258Z,13.2
2023-02-08T04:26:55.747Z,13.2
2023-02-08T04:27:58.028Z,13.2
2023-02-08T04:29:00.822Z,13.1
2023-02-08T04:30:02.781Z,13.2
2023-02-08T04:31:04.978Z,13.2
2023-02-08T04:32:07.998Z,13.2
2023-02-08T04:33:09.982Z,13.3
2023-02-08T04:34:12.532Z,13.2
2023-02-08T04:35:15.053Z,13.2
2023-02-08T04:36:17.534Z,13.2
2023-02-08T04:37:20.019Z,13.2
2023-02-08T04:38:22.744Z,13.1
2023-02-08T04:39:25.392Z,13.2
2023-02-08T04:40:28.900Z,13.2
2023-02-08T04:41:31.537Z,13.1
2023-02-08T04:42:33.519Z,13.1
2023-02-08T04:43:36.077Z,13.1
2023-02-08T04:44:38.644Z,13.2
2023-02-08T04:45:41.172Z,13.2
2023-02-08T04:46:43.783Z,13.2
2023-02-08T04:47:46.523Z,13.2
2023-02-08T04:48:49.148Z,13.1
2023-02-08T04:49:51.695Z,13.2
2023-02-08T04:50:54.217Z,13.1
2023-02-08T04:51:56.174Z,13.1
2023-02-08T04:52:58.414Z,13.2
2023-02-08T04:54:00.920Z,13.2
2023-02-08T04:55:03.193Z,13.2
2023-02-08T04:56:05.729Z,13.1
2023-02-08T04:57:08.240Z,13.1
2023-02-08T04:58:10.472Z,13.1
2023-02-08T04:59:12.983Z,13.2
2023-02-08T05:00:15.478Z,13.2
2023-02-08T05:01:17.594Z,13.1
2023-02-08T05:02:20.292Z,13.2
2023-02-08T05:03:22.835Z,13.1
2023-02-08T05:04:25.415Z,13.1
2023-02-08T05:05:27.691Z,13.2
2023-02-08T05:06:30.195Z,13.2
2023-02-08T05:07:32.430Z,13.2
2023-02-08T05:08:34.937Z,13.1
2023-02-08T05:09:37.199Z,13.2
2023-02-08T05:10:40.475Z,13.1
2023-02-08T05:11:43.635Z,13.2
2023-02-08T05:12:46.501Z,13.2
2023-02-08T05:13:48.748Z,13.1
2023-02-08T05:14:51.242Z,13.1
2023-02-08T05:15:53.857Z,13.2
2023-02-08T05:16:56.292Z,13.1
2023-02-08T05:17:58.858Z,13.1
2023-02-08T05:19:01.098Z,13.1
2023-02-08T05:20:03.094Z,13.2
2023-02-08T05:21:05.421Z,13.1
2023-02-08T05:22:07.900Z,13.1
2023-02-08T05:23:10.120Z,13.2
2023-02-08T05:24:12.454Z,13.2
2023-02-08T05:25:15.025Z,13.1
2023-02-08T05:26:17.586Z,13.2
2023-02-08T05:27:20.138Z,13.1
2023-02-08T05:28:22.779Z,13.1
2023-02-08T05:29:25.599Z,13.2
2023-02-08T05:30:28.094Z,13.1
2023-02-08T05:31:30.763Z,13.2
2023-02-08T05:32:33.720Z,13.1
2023-02-08T05:33:35.955Z,13.1
2023-02-08T05:34:38.168Z,13.1
2023-02-08T05:35:40.736Z,13.1
2023-02-08T05:36:43.493Z,13.1
2023-02-08T05:37:45.733Z,13.1
2023-02-08T05:38:48.002Z,13.1
2023-02-08T05:39:50.509Z,13.2
2023-02-08T05:40:53.018Z,13.1
2023-02-08T05:41:55.282Z,13.1
2023-02-08T05:42:57.775Z,13
2023-02-08T05:44:00.294Z,13.2
2023-02-08T05:45:02.823Z,13.2
2023-02-08T05:46:05.316Z,13.1
2023-02-08T05:47:07.715Z,13.1
2023-02-08T05:48:10.024Z,13.2
2023-02-08T05:49:12.308Z,13.2
2023-02-08T05:50:14.004Z,13.1
2023-02-08T05:51:16.586Z,13.2
2023-02-08T05:52:19.239Z,13.1
2023-02-08T05:53:21.785Z,13.1
2023-02-08T05:54:24.079Z,13.1
2023-02-08T05:55:26.304Z,13.1
2023-02-08T05:56:28.804Z,13.1
2023-02-08T05:57:34.850Z,13.1
2023-02-08T05:58:38.244Z,13.1
2023-02-08T05:59:40.476Z,13
2023-02-08T06:00:43.331Z,13.1
2023-02-08T06:01:46.049Z,13.1
2023-02-08T06:02:48.419Z,13.1
2023-02-08T06:03:51.193Z,13
2023-02-08T06:04:53.781Z,13.1
2023-02-08T06:05:56.014Z,13.1
2023-02-08T06:06:58.588Z,13.1
2023-02-08T06:08:00.868Z,13
2023-02-08T06:09:03.419Z,13.1
2023-02-08T06:10:05.948Z,13.1
2023-02-08T06:11:08.475Z,13.1
2023-02-08T06:12:10.997Z,13
2023-02-08T06:13:13.597Z,13.1
2023-02-08T06:14:16.109Z,13
2023-02-08T06:15:18.331Z,13.1
2023-02-08T06:16:20.669Z,13
2023-02-08T06:17:23.134Z,13
2023-02-08T06:18:25.628Z,13.1
2023-02-08T06:19:28.138Z,13
2023-02-08T06:20:30.367Z,13.1
2023-02-08T06:21:32.614Z,13
2023-02-08T06:22:34.865Z,13.1
2023-02-08T06:23:37.487Z,13.1
2023-02-08T06:24:39.720Z,13.1
2023-02-08T06:25:41.979Z,13
2023-02-08T06:26:44.206Z,13.1
2023-02-08T06:27:46.460Z,13.1
2023-02-08T06:28:49.089Z,13.1
2023-02-08T06:29:51.347Z,13.1
2023-02-08T06:30:53.574Z,13
2023-02-08T06:31:55.544Z,13
2023-02-08T06:32:58.142Z,13.1
2023-02-08T06:34:00.773Z,13
2023-02-08T06:35:03.110Z,13.1
2023-02-08T06:36:05.652Z,13.1
2023-02-08T06:37:07.886Z,13
2023-02-08T06:38:10.146Z,13.1
2023-02-08T06:39:12.727Z,13.1
2023-02-08T06:40:14.992Z,13.1
2023-02-08T06:41:17.219Z,13.1
2023-02-08T06:42:19.428Z,13.1
2023-02-08T06:43:21.657Z,13.1
2023-02-08T06:44:24.500Z,13.1
2023-02-08T06:45:27.077Z,13.1
2023-02-08T06:46:29.744Z,13
2023-02-08T06:47:31.716Z,13
2023-02-08T06:48:33.939Z,13
2023-02-08T06:49:36.458Z,13
2023-02-08T06:50:39.015Z,13
2023-02-08T06:51:42.967Z,13.1
2023-02-08T06:52:45.282Z,12.9
2023-02-08T06:53:47.546Z,13.1
2023-02-08T06:54:50.093Z,13
2023-02-08T06:55:52.596Z,13.1
2023-02-08T06:56:55.122Z,12.9
2023-02-08T06:57:57.786Z,13
2023-02-08T06:59:00.037Z,13.1
2023-02-08T07:00:02.127Z,13.1
2023-02-08T07:01:04.417Z,13
2023-02-08T07:02:06.971Z,13
2023-02-08T07:03:09.086Z,13
2023-02-08T07:04:11.603Z,13
2023-02-08T07:05:13.823Z,13
2023-02-08T07:06:15.763Z,13
2023-02-08T07:07:17.724Z,13
2023-02-08T07:08:20.258Z,13.1
2023-02-08T07:09:22.774Z,13
2023-02-08T07:10:25.027Z,12.9
2023-02-08T07:11:27.221Z,13
2023-02-08T07:12:29.768Z,13
2023-02-08T07:13:32.277Z,13
2023-02-08T07:14:34.504Z,12.9
2023-02-08T07:15:37.023Z,12.9
2023-02-08T07:16:39.385Z,12.9
2023-02-08T07:17:42.088Z,13.1
2023-02-08T07:18:44.045Z,12.9
2023-02-08T07:19:46.286Z,12.9
2023-02-08T07:20:48.491Z,12.8
2023-02-08T07:21:51.014Z,13
2023-02-08T07:22:52.994Z,13
2023-02-08T07:23:55.536Z,13
2023-02-08T07:24:57.769Z,12.9
2023-02-08T07:25:59.769Z,13
2023-02-08T07:27:02.044Z,13
2023-02-08T07:28:04.673Z,13
2023-02-08T07:29:07.223Z,13
2023-02-08T07:30:09.734Z,12.9
2023-02-08T07:31:12.136Z,12.9
2023-02-08T07:32:14.818Z,12.9
2023-02-08T07:33:17.052Z,13
2023-02-08T07:34:19.569Z,13
2023-02-08T07:35:22.074Z,13
2023-02-08T07:36:24.296Z,13
2023-02-08T07:37:26.230Z,12.9
2023-02-08T07:38:28.781Z,12.9
2023-02-08T07:39:31.026Z,13
2023-02-08T07:40:33.554Z,13
2023-02-08T07:41:35.821Z,12.9
2023-02-08T07:42:38.050Z,12.9
2023-02-08T07:43:40.004Z,12.9
2023-02-08T07:44:42.276Z,12.9
2023-02-08T07:45:44.718Z,12.9
2023-02-08T07:46:47.425Z,12.9
2023-02-08T07:47:49.353Z,12.9
2023-02-08T07:48:51.651Z,13
2023-02-08T07:49:53.914Z,12.9
2023-02-08T07:50:56.191Z,13
2023-02-08T07:51:58.155Z,12.9
2023-02-08T07:53:00.657Z,12.9
2023-02-08T07:54:03.178Z,12.7
2023-02-08T07:55:05.708Z,13
2023-02-08T07:56:08.248Z,12.9
2023-02-08T07:57:10.784Z,12.9
2023-02-08T07:58:13.270Z,12.9
2023-02-08T07:59:15.504Z,12.9
2023-02-08T08:00:17.730Z,12.9
2023-02-08T08:02:25.255Z,12.9
2023-02-08T08:03:27.474Z,12.9
2023-02-08T08:04:29.432Z,12.8
2023-02-08T08:05:31.785Z,12.9
2023-02-08T08:06:34.297Z,12.9
2023-02-08T08:07:36.812Z,12.9
2023-02-08T08:08:39.106Z,12.9
2023-02-08T08:09:41.398Z,12.9
2023-02-08T08:10:43.695Z,13
2023-02-08T08:11:45.700Z,12.9
2023-02-08T08:12:47.995Z,12.9
2023-02-08T08:13:50.235Z,12.9
2023-02-08T08:14:52.492Z,12.9
2023-02-08T08:15:54.710Z,12.8
2023-02-08T08:16:56.962Z,12.8
2023-02-08T08:17:58.947Z,12.9
2023-02-08T08:19:01.217Z,12.9
2023-02-08T08:20:03.457Z,12.9
2023-02-08T08:21:06.032Z,13
2023-02-08T08:22:08.580Z,12.9
2023-02-08T08:23:10.820Z,12.9
2023-02-08T08:24:13.065Z,12.9
2023-02-08T08:25:15.293Z,12.9
2023-02-08T08:26:17.555Z,12.9
2023-02-08T08:27:19.835Z,12.9
2023-02-08T08:28:22.317Z,13
2023-02-08T08:29:25.007Z,12.9
2023-02-08T08:30:27.600Z,12.9
2023-02-08T08:31:30.288Z,12.9
2023-02-08T08:32:32.992Z,12.9
2023-02-08T08:33:35.231Z,12.9
2023-02-08T08:34:37.729Z,12.9
2023-02-08T08:35:39.674Z,13
2023-02-08T08:36:41.918Z,13
2023-02-08T08:37:44.446Z,13
2023-02-08T08:38:46.665Z,12.9
2023-02-08T08:39:49.044Z,12.9
2023-02-08T08:40:51.269Z,13
2023-02-08T08:41:53.533Z,12.9
2023-02-08T08:42:55.845Z,12.9
2023-02-08T08:43:58.439Z,13
2023-02-08T08:45:00.971Z,13
2023-02-08T08:46:03.648Z,12.8
2023-02-08T08:47:05.829Z,12.9
2023-02-08T08:48:08.040Z,13
2023-02-08T08:49:10.043Z,12.9
2023-02-08T08:50:12.560Z,12.9
2023-02-08T08:51:15.127Z,13
2023-02-08T08:52:17.512Z,12.9
2023-02-08T08:53:19.735Z,13
2023-02-08T08:54:22.102Z,12.9
2023-02-08T08:55:24.675Z,12.8
2023-02-08T08:56:26.939Z,12.9
2023-02-08T08:57:29.252Z,13
2023-02-08T08:58:31.517Z,12.9
2023-02-08T08:59:33.846Z,13
2023-02-08T09:00:35.836Z,12.9
2023-02-08T09:01:37.920Z,13.1
2023-02-08T09:02:40.388Z,12.9
2023-02-08T09:03:42.713Z,12.9
2023-02-08T09:04:45.326Z,12.9
2023-02-08T09:05:47.834Z,12.9
2023-02-08T09:06:50.047Z,12.9
2023-02-08T09:07:52.265Z,12.9
2023-02-08T09:08:54.762Z,12.9
2023-02-08T09:09:57.024Z,12.9
2023-02-08T09:10:58.945Z,12.9
2023-02-08T09:12:00.871Z,12.9
2023-02-08T09:13:03.271Z,13
2023-02-08T09:14:06.147Z,12.9
2023-02-08T09:15:08.745Z,12.9
2023-02-08T09:16:11.326Z,12.9
2023-02-08T09:17:13.526Z,13
2023-02-08T09:18:16.047Z,13
2023-02-08T09:19:17.757Z,12.9
2023-02-08T09:20:20.414Z,12.8
2023-02-08T09:21:22.884Z,12.9
2023-02-08T09:22:25.417Z,12.9
2023-02-08T09:23:27.966Z,13
2023-02-08T09:24:30.233Z,13
2023-02-08T09:25:32.472Z,12.9
2023-02-08T09:26:34.984Z,12.9
2023-02-08T09:27:37.236Z,12.9
2023-02-08T09:28:39.211Z,12.9
2023-02-08T09:29:41.761Z,13
2023-02-08T09:30:44.947Z,13
2023-02-08T09:31:47.904Z,12.9
2023-02-08T09:32:50.290Z,12.9
2023-02-08T09:33:52.808Z,12.9
2023-02-08T09:34:55.324Z,12.9
2023-02-08T09:35:57.865Z,12.9
2023-02-08T09:37:00.092Z,12.9
2023-02-08T09:38:02.645Z,13
2023-02-08T09:39:04.614Z,12.9
2023-02-08T09:40:07.099Z,13
2023-02-08T09:41:09.320Z,13
2023-02-08T09:42:11.837Z,13
2023-02-08T09:43:14.088Z,13
2023-02-08T09:44:16.671Z,13
2023-02-08T09:45:19.192Z,12.9
2023-02-08T09:46:21.855Z,13
2023-02-08T09:47:24.455Z,12.9
2023-02-08T09:48:26.460Z,12.9
2023-02-08T09:49:28.971Z,12.9
2023-02-08T09:50:31.197Z,12.9
2023-02-08T09:51:33.729Z,12.9
2023-02-08T09:52:36.258Z,13
2023-02-08T09:53:38.752Z,12.9
2023-02-08T09:54:41.019Z,12.9
2023-02-08T09:55:43.520Z,13.1
2023-02-08T09:56:46.050Z,13
2023-02-08T09:57:48.555Z,12.9
2023-02-08T09:58:50.803Z,13
2023-02-08T09:59:53.389Z,12.9
2023-02-08T10:00:56.005Z,13
2023-02-08T10:01:58.819Z,12.9
2023-02-08T10:03:01.480Z,13
2023-02-08T10:04:03.628Z,12.8
2023-02-08T10:05:05.834Z,12.9
2023-02-08T10:06:08.370Z,13
2023-02-08T10:07:10.919Z,12.9
2023-02-08T10:08:13.486Z,12.9
2023-02-08T10:09:15.793Z,13.1
2023-02-08T10:10:18.099Z,13
2023-02-08T10:11:20.829Z,13
2023-02-08T10:12:23.170Z,12.9
2023-02-08T10:14:30.685Z,12.9
2023-02-08T10:15:33.245Z,13
2023-02-08T10:16:35.682Z,13
2023-02-08T10:17:38.453Z,12.9
2023-02-08T10:18:40.687Z,12.8
2023-02-08T10:19:43.166Z,12.9
2023-02-08T10:20:45.870Z,13.1
2023-02-08T10:21:48.415Z,12.9
2023-02-08T10:22:50.937Z,13
2023-02-08T10:23:53.191Z,13
2023-02-08T10:24:55.152Z,12.9
2023-02-08T10:25:57.452Z,12.8
2023-02-08T10:26:59.728Z,12.9
2023-02-08T10:28:02.539Z,13
2023-02-08T10:29:04.788Z,13
2023-02-08T10:30:07.433Z,12.9
2023-02-08T10:31:10.133Z,12.9
2023-02-08T10:32:13.368Z,12.8
2023-02-08T10:33:15.919Z,12.9
2023-02-08T10:34:18.479Z,12.9
2023-02-08T10:35:21.001Z,12.9
2023-02-08T10:36:23.533Z,13
2023-02-08T10:37:26.063Z,12.8
2023-02-08T10:40:38.450Z,12.9
2023-02-08T10:41:41.112Z,13
2023-02-08T10:42:44.218Z,12.9
2023-02-08T10:43:46.754Z,12.9
2023-02-08T10:44:49.254Z,13
2023-02-08T10:45:51.909Z,12.9
2023-02-08T10:46:54.700Z,12.9
2023-02-08T10:47:57.236Z,12.8
2023-02-08T10:48:59.819Z,12.9
2023-02-08T10:50:02.053Z,12.9
2023-02-08T10:51:04.083Z,13
2023-02-08T10:52:06.399Z,13
2023-02-08T10:53:09.091Z,13
2023-02-08T10:54:11.637Z,12.9
2023-02-08T10:55:14.230Z,13
2023-02-08T10:56:16.886Z,13
2023-02-08T10:57:19.139Z,12.9
2023-02-08T10:58:21.417Z,12.9
2023-02-08T10:59:23.678Z,13
2023-02-08T11:00:26.195Z,12.9
2023-02-08T11:01:28.822Z,12.9
2023-02-08T11:02:31.350Z,12.9
2023-02-08T11:03:33.914Z,12.9
2023-02-08T11:04:36.464Z,13
2023-02-08T11:05:38.426Z,13
2023-02-08T11:06:40.092Z,13
2023-02-08T11:07:42.625Z,13
2023-02-08T11:08:45.120Z,13
2023-02-08T11:09:47.340Z,12.9
2023-02-08T11:10:49.814Z,13
2023-02-08T11:11:51.740Z,13
2023-02-08T11:12:54.352Z,12.9
2023-02-08T11:13:56.614Z,12.8
2023-02-08T11:14:59.117Z,13
2023-02-08T11:16:01.415Z,12.9
2023-02-08T11:17:03.901Z,12.9
2023-02-08T11:18:05.951Z,12.9
2023-02-08T11:19:08.515Z,12.9
2023-02-08T11:20:10.549Z,12.9
2023-02-08T11:21:12.769Z,13
2023-02-08T11:22:14.998Z,12.9
2023-02-08T11:23:16.940Z,12.9
2023-02-08T11:24:19.151Z,13
2023-02-08T11:25:21.405Z,13
2023-02-08T11:26:23.906Z,12.9
2023-02-08T11:27:26.461Z,13
2023-02-08T11:28:28.496Z,12.9
2023-02-08T11:29:30.467Z,13
2023-02-08T11:30:33.043Z,12.9
2023-02-08T11:31:35.774Z,13
2023-02-08T11:32:38.500Z,13
2023-02-08T11:33:40.465Z,13
2023-02-08T11:34:42.707Z,12.9
2023-02-08T11:35:45.704Z,13
2023-02-08T11:36:47.957Z,13
2023-02-08T11:37:50.198Z,13
2023-02-08T11:38:52.447Z,12.9
2023-02-08T11:39:54.975Z,12.9
2023-02-08T11:40:57.538Z,12.9
2023-02-08T11:41:59.798Z,12.8
2023-02-08T11:43:02.024Z,12.9
2023-02-08T11:44:04.555Z,12.9
2023-02-08T11:45:06.789Z,12.9
2023-02-08T11:46:09.477Z,12.9
2023-02-08T11:47:12.218Z,12.9
2023-02-08T11:48:14.710Z,13
2023-02-08T11:49:17.230Z,12.8
2023-02-08T11:50:19.464Z,12.9
2023-02-08T11:51:22.014Z,12.9
2023-02-08T11:52:24.534Z,13
2023-02-08T11:53:27.079Z,12.9
2023-02-08T11:54:29.626Z,12.9
2023-02-08T11:55:32.129Z,13
2023-02-08T11:56:34.760Z,12.9
2023-02-08T11:57:37.012Z,12.9
2023-02-08T11:58:43.532Z,12.9
2023-02-08T11:59:46.024Z,12.8
2023-02-08T12:00:48.264Z,13
2023-02-08T12:01:50.808Z,12.9
2023-02-08T12:02:52.781Z,12.9
2023-02-08T12:05:00.074Z,13
2023-02-08T12:06:02.374Z,13.1
2023-02-08T12:07:04.940Z,12.8
2023-02-08T12:08:06.869Z,13
2023-02-08T12:09:08.675Z,12.9
2023-02-08T12:10:11.171Z,12.9
2023-02-08T12:11:13.681Z,12.9
2023-02-08T12:12:16.223Z,13
2023-02-08T12:13:18.833Z,12.9
2023-02-08T12:14:20.796Z,13
2023-02-08T12:15:23.446Z,12.9
2023-02-08T12:16:26.261Z,12.9
2023-02-08T12:17:28.941Z,13
2023-02-08T12:18:31.567Z,13
2023-02-08T12:19:33.961Z,13
2023-02-08T12:20:36.585Z,13
2023-02-08T12:21:39.274Z,13
2023-02-08T12:22:41.911Z,12.9
2023-02-08T12:23:44.148Z,12.9
2023-02-08T12:24:46.687Z,12.9
2023-02-08T12:25:49.208Z,12.9
2023-02-08T12:26:51.167Z,12.9
2023-02-08T12:27:53.765Z,12.9
2023-02-08T12:28:56.121Z,12.9
2023-02-08T12:29:58.639Z,12.9
2023-02-08T12:31:00.941Z,12.9
2023-02-08T12:32:03.999Z,13
2023-02-08T12:33:06.539Z,12.9
2023-02-08T12:34:09.169Z,13
2023-02-08T12:35:11.431Z,12.9
2023-02-08T12:36:14.022Z,12.9
2023-02-08T12:37:16.936Z,13
2023-02-08T12:38:19.286Z,13
2023-02-08T12:40:26.500Z,12.9
2023-02-08T12:41:29.029Z,13
2023-02-08T12:42:31.284Z,13
2023-02-08T12:43:33.696Z,13
2023-02-08T12:44:35.954Z,13
2023-02-08T12:45:38.447Z,13
2023-02-08T12:46:40.994Z,12.9
2023-02-08T12:48:48.479Z,13
2023-02-08T12:49:50.982Z,12.8
2023-02-08T12:50:53.477Z,13
2023-02-08T12:51:56.007Z,13
2023-02-08T12:52:58.566Z,12.9
2023-02-08T12:54:01.226Z,13
2023-02-08T12:55:03.772Z,13
2023-02-08T12:56:06.490Z,13
2023-02-08T12:57:08.454Z,12.9
2023-02-08T12:58:10.936Z,13
2023-02-08T12:59:14.563Z,13
2023-02-08T13:00:17.058Z,13
2023-02-08T13:01:19.676Z,13
2023-02-08T13:02:22.391Z,13
2023-02-08T13:03:25.069Z,13
2023-02-08T13:04:27.556Z,13
2023-02-08T13:05:29.759Z,13
2023-02-08T13:06:32.088Z,12.9
2023-02-08T13:07:35.031Z,12.9
2023-02-08T13:08:37.567Z,13
2023-02-08T13:09:40.126Z,13
2023-02-08T13:10:42.652Z,13
2023-02-08T13:11:45.177Z,13
2023-02-08T13:12:47.680Z,12.9
2023-02-08T13:13:50.190Z,13
2023-02-08T13:14:52.448Z,13
2023-02-08T13:15:54.972Z,13.1
2023-02-08T13:16:57.788Z,13
2023-02-08T13:17:59.721Z,13
2023-02-08T13:19:02.223Z,12.9
2023-02-08T13:20:04.496Z,12.9
2023-02-08T13:21:06.996Z,13
2023-02-08T13:22:09.207Z,13.1
2023-02-08T13:23:11.480Z,13
2023-02-08T13:24:14.006Z,12.9
2023-02-08T13:25:19.532Z,13.1
2023-02-08T13:26:21.759Z,13
2023-02-08T13:27:24.276Z,13
2023-02-08T13:28:27.163Z,13
2023-02-08T13:29:31.004Z,13
2023-02-08T13:30:33.871Z,13
2023-02-08T13:31:36.656Z,12.9
2023-02-08T13:32:40.627Z,12.9
2023-02-08T13:34:49.898Z,13
2023-02-08T13:35:52.161Z,13.1
2023-02-08T13:36:54.683Z,13
2023-02-08T13:37:56.706Z,13
2023-02-08T13:38:58.673Z,13
2023-02-08T13:40:00.946Z,13
2023-02-08T13:41:03.577Z,13
2023-02-08T13:42:06.074Z,13
2023-02-08T13:43:08.315Z,13.1
2023-02-08T13:44:10.867Z,13
2023-02-08T13:45:12.551Z,12.9
2023-02-08T13:46:15.127Z,13
2023-02-08T13:47:17.459Z,13
2023-02-08T13:48:20.337Z,13
2023-02-08T13:49:22.866Z,13
2023-02-08T13:50:26.790Z,13
2023-02-08T13:51:30.838Z,13
2023-02-08T13:53:37.925Z,13
2023-02-08T13:54:40.209Z,13
2023-02-08T13:55:43.669Z,12.9
2023-02-08T13:56:47.317Z,13
2023-02-08T13:57:49.284Z,13
2023-02-08T13:58:52.212Z,13
2023-02-08T13:59:54.746Z,13.1
2023-02-08T14:00:57.269Z,12.9
2023-02-08T14:01:59.674Z,13
2023-02-08T14:03:02.548Z,13
2023-02-08T14:04:05.148Z,13
2023-02-08T14:05:07.656Z,13
2023-02-08T14:06:09.593Z,13
2023-02-08T14:07:12.137Z,13
2023-02-08T14:08:14.677Z,13.1
2023-02-08T14:09:16.637Z,13
2023-02-08T14:10:18.943Z,13.1
2023-02-08T14:11:21.507Z,13
2023-02-08T14:12:24.100Z,13
2023-02-08T14:13:26.347Z,13
2023-02-08T14:14:28.866Z,13
2023-02-08T14:15:30.845Z,13